createdAt,value
2019-03-23T00:00:40.741Z,21.40
2019-03-23T00:01:40.607Z,18.90
2019-03-23T00:02:40.611Z,22.20
2019-03-23T00:03:40.686Z,22.90
2019-03-23T00:04:40.488Z,21.00
2019-03-23T00:05:40.487Z,21.60
2019-03-23T00:06:40.365Z,21.30
2019-03-23T00:07:40.367Z,19.50
2019-03-23T00:08:40.364Z,19.90
2019-03-23T00:09:40.246Z,19.00
2019-03-23T00:10:40.244Z,20.60
2019-03-23T00:11:40.122Z,23.60
2019-03-23T00:12:40.126Z,20.50
2019-03-23T00:13:40.122Z,22.30
2019-03-23T00:14:40.006Z,20.40
2019-03-23T00:15:40.003Z,20.80
2019-03-23T00:16:39.887Z,21.70
2019-03-23T00:17:39.881Z,21.10
2019-03-23T00:18:39.884Z,23.50
2019-03-23T00:19:39.759Z,21.70
2019-03-23T00:20:39.762Z,20.40
2019-03-23T00:21:39.723Z,22.30
2019-03-23T00:22:39.644Z,27.80
2019-03-23T00:23:39.640Z,25.80
2019-03-23T00:24:39.521Z,25.50
2019-03-23T00:25:39.523Z,24.50
2019-03-23T00:26:39.529Z,24.30
2019-03-23T00:27:39.402Z,25.70
2019-03-23T00:28:39.410Z,24.00
2019-03-23T00:29:39.290Z,24.90
2019-03-23T00:30:39.283Z,25.80
2019-03-23T00:31:39.289Z,23.50
2019-03-23T00:32:39.167Z,24.90
2019-03-23T00:33:39.167Z,24.70
2019-03-23T00:34:39.040Z,24.20
2019-03-23T00:35:39.045Z,25.50
2019-03-23T00:36:41.704Z,25.00
2019-03-23T00:37:38.918Z,27.50
2019-03-23T00:38:38.917Z,25.80
2019-03-23T00:39:38.799Z,24.80
2019-03-23T00:40:38.799Z,24.30
2019-03-23T00:41:38.808Z,25.60
2019-03-23T00:42:38.678Z,25.50
2019-03-23T00:43:38.679Z,27.00
2019-03-23T00:44:38.639Z,26.00
2019-03-23T00:45:38.563Z,25.20
2019-03-23T00:46:38.558Z,28.50
2019-03-23T00:47:38.437Z,26.50
2019-03-23T00:48:38.447Z,27.00
2019-03-23T00:49:38.444Z,28.70
2019-03-23T00:50:38.314Z,27.10
2019-03-23T00:51:38.319Z,28.50
2019-03-23T00:52:38.196Z,26.50
2019-03-23T00:53:38.195Z,27.70
2019-03-23T00:54:38.194Z,25.10
2019-03-23T00:55:38.072Z,28.30
2019-03-23T00:56:38.073Z,28.30
2019-03-23T00:57:37.955Z,29.10
2019-03-23T00:58:37.954Z,26.90
2019-03-23T00:59:37.959Z,27.60
2019-03-23T01:00:37.834Z,27.50
2019-03-23T01:01:37.832Z,32.00
2019-03-23T01:02:37.720Z,30.20
2019-03-23T01:03:37.711Z,30.80
2019-03-23T01:04:37.717Z,37.90
2019-03-23T01:05:37.593Z,39.00
2019-03-23T01:06:37.591Z,43.80
2019-03-23T01:07:37.560Z,49.70
2019-03-23T01:08:37.482Z,46.30
2019-03-23T01:09:37.470Z,48.40
2019-03-23T01:10:37.357Z,51.20
2019-03-23T01:11:37.354Z,53.20
2019-03-23T01:12:37.313Z,53.70
2019-03-23T01:13:37.232Z,59.80
2019-03-23T01:14:37.232Z,60.00
2019-03-23T01:15:37.120Z,60.80
2019-03-23T01:16:37.119Z,61.20
2019-03-23T01:17:37.109Z,64.30
2019-03-23T01:18:36.989Z,65.10
2019-03-23T01:19:36.990Z,62.60
2019-03-23T01:20:36.867Z,67.80
2019-03-23T01:21:36.869Z,64.40
2019-03-23T01:22:36.871Z,67.10
2019-03-23T01:23:36.747Z,65.70
2019-03-23T01:24:36.748Z,66.50
2019-03-23T01:25:36.632Z,70.70
2019-03-23T01:26:36.626Z,72.30
2019-03-23T01:27:36.633Z,68.30
2019-03-23T01:28:36.510Z,62.80
2019-03-23T01:29:36.509Z,67.50
2019-03-23T01:30:36.388Z,71.30
2019-03-23T01:31:36.390Z,68.40
2019-03-23T01:32:36.386Z,65.20
2019-03-23T01:33:36.274Z,66.00
2019-03-23T01:34:36.264Z,68.90
2019-03-23T01:35:36.146Z,69.40
2019-03-23T01:36:36.148Z,67.90
2019-03-23T01:37:36.146Z,71.90
2019-03-23T01:38:36.030Z,72.90
2019-03-23T01:39:36.026Z,71.50
2019-03-23T01:40:36.423Z,68.70
2019-03-23T01:41:35.905Z,71.70
2019-03-23T01:42:35.911Z,69.10
2019-03-23T01:43:35.783Z,67.60
2019-03-23T01:44:35.785Z,72.60
2019-03-23T01:45:35.784Z,69.50
2019-03-23T01:46:35.865Z,71.40
2019-03-23T01:47:35.668Z,74.80
2019-03-23T01:48:35.542Z,78.00
2019-03-23T01:49:35.545Z,74.80
2019-03-23T01:50:35.625Z,72.00
2019-03-23T01:51:35.421Z,80.50
2019-03-23T01:52:35.423Z,79.30
2019-03-23T01:53:35.303Z,77.70
2019-03-23T01:54:35.306Z,79.90
2019-03-23T01:55:35.300Z,81.70
2019-03-23T01:56:35.201Z,85.60
2019-03-23T01:57:35.183Z,83.60
2019-03-23T01:58:35.143Z,88.20
2019-03-23T01:59:35.062Z,89.00
2019-03-23T02:00:35.070Z,90.10
2019-03-23T02:01:34.939Z,89.90
2019-03-23T02:02:34.951Z,92.20
2019-03-23T02:03:34.902Z,95.10
2019-03-23T02:04:34.820Z,95.40
2019-03-23T02:05:34.821Z,95.00
2019-03-23T02:06:34.698Z,95.00
2019-03-23T02:07:34.701Z,98.20
2019-03-23T02:08:34.700Z,99.00
2019-03-23T02:09:34.579Z,94.60
2019-03-23T02:10:34.581Z,98.90
2019-03-23T02:11:34.456Z,92.40
2019-03-23T02:12:34.466Z,94.60
2019-03-23T02:13:34.461Z,92.40
2019-03-23T02:14:34.341Z,89.20
2019-03-23T02:15:34.340Z,85.00
2019-03-23T02:16:34.222Z,89.10
2019-03-23T02:17:34.218Z,89.00
2019-03-23T02:18:34.296Z,88.10
2019-03-23T02:19:34.097Z,81.40
2019-03-23T02:20:34.100Z,83.00
2019-03-23T02:21:33.979Z,83.80
2019-03-23T02:22:33.977Z,84.80
2019-03-23T02:23:33.977Z,82.60
2019-03-23T02:24:33.854Z,78.90
2019-03-23T02:25:33.861Z,76.10
2019-03-23T02:26:33.818Z,81.30
2019-03-23T02:27:33.736Z,77.40
2019-03-23T02:28:33.736Z,81.10
2019-03-23T02:29:33.613Z,83.60
2019-03-23T02:30:33.616Z,84.70
2019-03-23T02:31:33.622Z,86.60
2019-03-23T02:32:33.495Z,87.00
2019-03-23T02:33:33.495Z,89.70
2019-03-23T02:34:33.375Z,87.40
2019-03-23T02:35:33.382Z,85.40
2019-03-23T02:36:33.375Z,88.00
2019-03-23T02:37:33.253Z,85.00
2019-03-23T02:38:33.256Z,87.60
2019-03-23T02:39:33.211Z,89.70
2019-03-23T02:40:33.153Z,87.30
2019-03-23T02:41:33.140Z,88.90
2019-03-23T02:42:33.017Z,92.50
2019-03-23T02:43:33.015Z,93.30
2019-03-23T02:44:32.909Z,93.80
2019-03-23T02:45:32.894Z,88.30
2019-03-23T02:46:32.897Z,89.40
2019-03-23T02:47:32.770Z,93.40
2019-03-23T02:48:32.775Z,97.90
2019-03-23T02:49:32.650Z,96.50
2019-03-23T02:50:32.663Z,95.10
2019-03-23T02:51:32.651Z,104.50
2019-03-23T02:52:32.529Z,110.00
2019-03-23T02:53:32.528Z,104.70
2019-03-23T02:54:32.495Z,101.90
2019-03-23T02:55:32.410Z,108.10
2019-03-23T02:56:32.419Z,103.00
2019-03-23T02:57:32.293Z,104.30
2019-03-23T02:58:32.293Z,103.60
2019-03-23T02:59:32.292Z,105.00
2019-03-23T03:00:32.172Z,104.20
2019-03-23T03:01:32.170Z,104.40
2019-03-23T03:02:32.049Z,109.40
2019-03-23T03:03:32.052Z,110.80
2019-03-23T03:04:32.051Z,118.60
2019-03-23T03:05:31.929Z,108.20
2019-03-23T03:06:31.928Z,108.70
2019-03-23T03:07:41.765Z,110.30
2019-03-23T03:08:31.807Z,104.80
2019-03-23T03:09:31.811Z,110.60
2019-03-23T03:10:31.692Z,110.30
2019-03-23T03:11:31.685Z,106.20
2019-03-23T03:12:31.582Z,105.60
2019-03-23T03:13:31.568Z,114.70
2019-03-23T03:14:31.569Z,122.00
2019-03-23T03:15:31.472Z,110.00
2019-03-23T03:16:31.447Z,115.70
2019-03-23T03:17:31.325Z,117.10
2019-03-23T03:18:31.327Z,115.90
2019-03-23T03:19:31.323Z,116.70
2019-03-23T03:20:31.207Z,115.10
2019-03-23T03:21:31.206Z,114.40
2019-03-23T03:22:31.202Z,112.20
2019-03-23T03:23:31.089Z,111.90
2019-03-23T03:24:31.081Z,116.10
2019-03-23T03:25:30.962Z,111.90
2019-03-23T03:26:30.971Z,118.50
2019-03-23T03:27:30.973Z,116.40
2019-03-23T03:28:30.841Z,120.90
2019-03-23T03:29:30.848Z,118.20
2019-03-23T03:30:30.728Z,121.00
2019-03-23T03:31:30.726Z,119.70
2019-03-23T03:32:30.724Z,119.10
2019-03-23T03:33:30.722Z,124.50
2019-03-23T03:34:30.682Z,117.00
2019-03-23T03:35:30.484Z,119.40
2019-03-23T03:36:30.484Z,119.70
2019-03-23T03:37:30.491Z,118.80
2019-03-23T03:38:30.365Z,118.70
2019-03-23T03:39:30.366Z,117.60
2019-03-23T03:40:30.248Z,119.70
2019-03-23T03:41:30.240Z,116.70
2019-03-23T03:42:30.243Z,116.30
2019-03-23T03:43:30.122Z,115.50
2019-03-23T03:44:30.118Z,115.00
2019-03-23T03:45:30.080Z,115.20
2019-03-23T03:46:30.008Z,118.80
2019-03-23T03:47:30.002Z,108.30
2019-03-23T03:48:29.878Z,115.50
2019-03-23T03:49:29.880Z,115.20
2019-03-23T03:50:29.892Z,111.40
2019-03-23T03:51:29.760Z,114.10
2019-03-23T03:52:29.758Z,115.20
2019-03-23T03:53:29.637Z,118.70
2019-03-23T03:54:29.638Z,114.80
2019-03-23T03:55:29.641Z,115.80
2019-03-23T03:56:29.530Z,117.50
2019-03-23T03:57:29.520Z,119.60
2019-03-23T03:58:29.395Z,116.90
2019-03-23T03:59:29.400Z,122.50
2019-03-23T04:00:29.395Z,115.20
2019-03-23T04:01:29.277Z,124.10
2019-03-23T04:02:29.278Z,116.80
2019-03-23T04:03:29.166Z,124.90
2019-03-23T04:04:29.168Z,123.20
2019-03-23T04:05:29.154Z,117.40
2019-03-23T04:06:29.036Z,121.00
2019-03-23T04:07:29.043Z,124.80
2019-03-23T04:08:28.921Z,122.40
2019-03-23T04:09:28.915Z,126.30
2019-03-23T04:10:28.922Z,124.90
2019-03-23T04:11:28.801Z,121.30
2019-03-23T04:12:28.797Z,120.60
2019-03-23T04:13:28.763Z,120.10
2019-03-23T04:14:28.673Z,124.90
2019-03-23T04:15:28.680Z,125.60
2019-03-23T04:16:28.553Z,124.30
2019-03-23T04:17:28.556Z,123.10
2019-03-23T04:18:28.552Z,123.10
2019-03-23T04:19:28.434Z,125.60
2019-03-23T04:20:28.436Z,120.70
2019-03-23T04:21:28.316Z,121.30
2019-03-23T04:22:28.311Z,127.50
2019-03-23T04:23:28.348Z,122.90
2019-03-23T04:24:28.189Z,123.80
2019-03-23T04:25:28.192Z,119.20
2019-03-23T04:26:28.073Z,126.90
2019-03-23T04:27:28.077Z,123.80
2019-03-23T04:28:28.072Z,123.70
2019-03-23T04:29:27.956Z,126.90
2019-03-23T04:30:27.952Z,129.70
2019-03-23T04:31:27.844Z,118.00
2019-03-23T04:32:27.840Z,118.50
2019-03-23T04:33:27.833Z,124.80
2019-03-23T04:34:27.710Z,124.30
2019-03-23T04:35:27.707Z,122.70
2019-03-23T04:36:27.589Z,132.70
2019-03-23T04:37:27.589Z,120.70
2019-03-23T04:38:27.591Z,123.50
2019-03-23T04:39:27.477Z,122.50
2019-03-23T04:40:27.468Z,119.40
2019-03-23T04:41:27.470Z,124.20
2019-03-23T04:42:27.344Z,126.10
2019-03-23T04:43:27.348Z,127.30
2019-03-23T04:44:27.226Z,123.70
2019-03-23T04:45:27.229Z,118.50
2019-03-23T04:46:27.227Z,119.30
2019-03-23T04:47:27.107Z,120.60
2019-03-23T04:48:27.108Z,114.80
2019-03-23T04:49:26.983Z,123.60
2019-03-23T04:50:26.987Z,119.40
2019-03-23T04:51:26.985Z,120.10
2019-03-23T04:52:26.864Z,117.50
2019-03-23T04:53:26.863Z,120.80
2019-03-23T04:54:26.745Z,118.20
2019-03-23T04:55:26.749Z,122.50
2019-03-23T04:56:26.745Z,123.70
2019-03-23T04:57:26.623Z,109.00
2019-03-23T04:58:26.631Z,126.30
2019-03-23T04:59:26.506Z,124.80
2019-03-23T05:00:26.509Z,121.60
2019-03-23T05:01:26.501Z,118.60
2019-03-23T05:02:26.384Z,113.10
2019-03-23T05:03:26.386Z,115.50
2019-03-23T05:04:26.387Z,123.20
2019-03-23T05:05:26.308Z,118.30
2019-03-23T05:06:26.263Z,121.10
2019-03-23T05:07:26.143Z,120.90
2019-03-23T05:08:33.289Z,114.70
2019-03-23T05:09:26.158Z,119.80
2019-03-23T05:10:26.023Z,118.80
2019-03-23T05:11:26.022Z,114.00
2019-03-23T05:12:25.902Z,114.00
2019-03-23T05:13:25.900Z,119.30
2019-03-23T05:14:25.904Z,115.40
2019-03-23T05:15:25.780Z,117.90
2019-03-23T05:16:25.780Z,112.50
2019-03-23T05:17:25.659Z,114.00
2019-03-23T05:18:25.658Z,117.10
2019-03-23T05:19:25.678Z,114.30
2019-03-23T05:20:25.544Z,117.60
2019-03-23T05:21:25.544Z,109.80
2019-03-23T05:22:25.419Z,115.40
2019-03-23T05:23:25.418Z,112.90
2019-03-23T05:24:25.421Z,115.60
2019-03-23T05:25:25.306Z,115.70
2019-03-23T05:26:25.303Z,108.90
2019-03-23T05:27:25.299Z,107.30
2019-03-23T05:28:25.193Z,115.80
2019-03-23T05:29:25.178Z,108.30
2019-03-23T05:30:25.063Z,113.20
2019-03-23T05:31:25.059Z,110.80
2019-03-23T05:32:25.062Z,113.90
2019-03-23T05:33:24.936Z,118.20
2019-03-23T05:34:24.945Z,114.70
2019-03-23T05:35:24.819Z,116.80
2019-03-23T05:36:24.814Z,109.80
2019-03-23T05:37:24.820Z,114.50
2019-03-23T05:38:24.697Z,117.20
2019-03-23T05:39:24.697Z,116.00
2019-03-23T05:40:24.576Z,115.80
2019-03-23T05:41:24.575Z,117.80
2019-03-23T05:42:24.576Z,119.20
2019-03-23T05:43:24.452Z,115.40
2019-03-23T05:44:24.454Z,114.80
2019-03-23T05:45:24.334Z,110.90
2019-03-23T05:46:24.333Z,117.30
2019-03-23T05:47:24.335Z,118.00
2019-03-23T05:48:24.219Z,115.10
2019-03-23T05:49:24.214Z,113.80
2019-03-23T05:50:24.220Z,117.00
2019-03-23T05:51:24.096Z,116.70
2019-03-23T05:52:24.096Z,114.20
2019-03-23T05:53:23.973Z,119.00
2019-03-23T05:54:23.974Z,120.30
2019-03-23T05:55:23.974Z,117.80
2019-03-23T05:56:23.861Z,116.20
2019-03-23T05:57:23.854Z,118.20
2019-03-23T05:58:23.733Z,121.60
2019-03-23T05:59:23.731Z,117.90
2019-03-23T06:00:23.733Z,112.00
2019-03-23T06:01:23.617Z,114.20
2019-03-23T06:02:23.614Z,117.10
2019-03-23T06:03:23.491Z,118.90
2019-03-23T06:04:23.493Z,111.60
2019-03-23T06:05:24.719Z,111.90
2019-03-23T06:06:23.373Z,109.90
2019-03-23T06:07:23.371Z,105.10
2019-03-23T06:08:23.363Z,108.00
2019-03-23T06:09:23.248Z,104.80
2019-03-23T06:10:23.257Z,105.10
2019-03-23T06:11:23.128Z,106.80
2019-03-23T06:12:23.130Z,102.10
2019-03-23T06:13:23.127Z,100.00
2019-03-23T06:14:23.006Z,99.30
2019-03-23T06:15:23.006Z,96.30
2019-03-23T06:16:22.887Z,95.70
2019-03-23T06:17:22.888Z,95.90
2019-03-23T06:18:22.888Z,91.00
2019-03-23T06:19:22.766Z,93.20
2019-03-23T06:20:22.772Z,93.90
2019-03-23T06:21:22.645Z,92.20
2019-03-23T06:22:22.646Z,85.50
2019-03-23T06:23:22.648Z,87.90
2019-03-23T06:24:24.806Z,87.80
2019-03-23T06:25:22.526Z,90.30
2019-03-23T06:26:22.406Z,86.30
2019-03-23T06:27:22.407Z,85.60
2019-03-23T06:28:22.406Z,89.90
2019-03-23T06:29:22.288Z,89.70
2019-03-23T06:30:22.287Z,87.70
2019-03-23T06:31:22.282Z,88.10
2019-03-23T06:32:22.163Z,92.00
2019-03-23T06:33:22.183Z,87.30
2019-03-23T06:34:22.047Z,86.10
2019-03-23T06:35:22.045Z,87.00
2019-03-23T06:36:22.048Z,85.30
2019-03-23T06:37:21.925Z,90.90
2019-03-23T06:38:21.938Z,84.50
2019-03-23T06:39:21.815Z,89.80
2019-03-23T06:40:21.808Z,86.50
2019-03-23T06:41:21.800Z,85.90
2019-03-23T06:42:21.697Z,84.60
2019-03-23T06:43:21.683Z,84.00
2019-03-23T06:44:21.561Z,82.30
2019-03-23T06:45:21.560Z,82.80
2019-03-23T06:46:21.562Z,81.20
2019-03-23T06:47:21.440Z,80.40
2019-03-23T06:48:21.442Z,80.20
2019-03-23T06:49:21.403Z,82.80
2019-03-23T06:50:21.323Z,86.70
2019-03-23T06:51:21.320Z,81.90
2019-03-23T06:52:21.200Z,82.10
2019-03-23T06:53:21.203Z,80.80
2019-03-23T06:54:21.197Z,79.70
2019-03-23T06:55:21.079Z,80.90
2019-03-23T06:56:21.078Z,84.90
2019-03-23T06:57:20.962Z,82.20
2019-03-23T06:58:20.962Z,82.70
2019-03-23T06:59:20.959Z,81.60
2019-03-23T07:00:20.842Z,81.00
2019-03-23T07:01:20.837Z,80.80
2019-03-23T07:02:20.718Z,81.00
2019-03-23T07:03:20.721Z,83.40
2019-03-23T07:04:20.720Z,84.50
2019-03-23T07:05:20.597Z,78.90
2019-03-23T07:06:20.601Z,81.40
2019-03-23T07:07:20.559Z,81.60
2019-03-23T07:08:31.306Z,84.30
2019-03-23T07:09:20.474Z,79.80
2019-03-23T07:10:20.357Z,75.80
2019-03-23T07:11:20.356Z,81.90
2019-03-23T07:12:20.354Z,79.90
2019-03-23T07:13:20.236Z,81.70
2019-03-23T07:14:20.234Z,79.90
2019-03-23T07:15:20.659Z,81.70
2019-03-23T07:16:20.119Z,80.90
2019-03-23T07:17:20.114Z,81.40
2019-03-23T07:18:19.993Z,81.60
2019-03-23T07:19:19.997Z,77.20
2019-03-23T07:20:19.881Z,76.20
2019-03-23T07:21:19.876Z,79.40
2019-03-23T07:22:19.874Z,82.00
2019-03-23T07:23:19.753Z,78.60
2019-03-23T07:24:19.752Z,80.90
2019-03-23T07:25:19.772Z,77.00
2019-03-23T07:26:19.634Z,77.20
2019-03-23T07:27:19.632Z,78.60
2019-03-23T07:28:19.514Z,77.10
2019-03-23T07:29:19.516Z,78.00
2019-03-23T07:30:19.539Z,81.20
2019-03-23T07:31:19.393Z,79.20
2019-03-23T07:32:19.390Z,80.50
2019-03-23T07:33:19.272Z,81.00
2019-03-23T07:34:19.273Z,78.90
2019-03-23T07:35:19.270Z,80.10
2019-03-23T07:36:19.153Z,79.50
2019-03-23T07:37:19.151Z,78.30
2019-03-23T07:38:19.033Z,76.00
2019-03-23T07:39:26.912Z,81.40
2019-03-23T07:40:19.033Z,75.40
2019-03-23T07:41:18.910Z,77.50
2019-03-23T07:42:18.909Z,74.20
2019-03-23T07:43:18.910Z,76.20
2019-03-23T07:44:18.789Z,73.10
2019-03-23T07:45:18.787Z,77.20
2019-03-23T07:46:18.668Z,74.80
2019-03-23T07:47:18.668Z,75.70
2019-03-23T07:48:18.715Z,74.50
2019-03-23T07:49:18.548Z,77.90
2019-03-23T07:50:18.550Z,77.20
2019-03-23T07:51:18.425Z,78.40
2019-03-23T07:52:18.425Z,81.50
2019-03-23T07:53:18.432Z,79.00
2019-03-23T07:54:18.307Z,76.00
2019-03-23T07:55:18.310Z,77.90
2019-03-23T07:56:18.267Z,81.60
2019-03-23T07:57:18.190Z,78.70
2019-03-23T07:58:18.187Z,76.10
2019-03-23T07:59:18.066Z,79.40
2019-03-23T08:00:18.140Z,80.00
2019-03-23T08:01:18.068Z,79.90
2019-03-23T08:02:17.944Z,79.00
2019-03-23T08:03:17.947Z,78.50
2019-03-23T08:04:17.836Z,77.90
2019-03-23T08:05:17.826Z,78.10
2019-03-23T08:06:17.837Z,77.40
2019-03-23T08:07:17.704Z,83.20
2019-03-23T08:08:17.701Z,77.70
2019-03-23T08:09:20.640Z,79.10
2019-03-23T08:10:17.584Z,76.20
2019-03-23T08:11:17.587Z,80.10
2019-03-23T08:12:17.463Z,80.20
2019-03-23T08:13:17.503Z,82.00
2019-03-23T08:14:17.487Z,76.10
2019-03-23T08:15:17.340Z,75.00
2019-03-23T08:16:17.341Z,81.00
2019-03-23T08:17:17.224Z,78.00
2019-03-23T08:18:17.221Z,78.50
2019-03-23T08:19:17.222Z,78.30
2019-03-23T08:20:17.098Z,77.50
2019-03-23T08:21:17.104Z,77.60
2019-03-23T08:22:17.063Z,75.70
2019-03-23T08:23:16.981Z,80.30
2019-03-23T08:24:16.982Z,85.30
2019-03-23T08:25:16.858Z,80.60
2019-03-23T08:26:16.861Z,84.10
2019-03-23T08:27:16.861Z,79.60
2019-03-23T08:28:16.739Z,83.40
2019-03-23T08:29:16.737Z,83.10
2019-03-23T08:30:16.619Z,78.60
2019-03-23T08:31:16.623Z,80.70
2019-03-23T08:32:16.622Z,85.30
2019-03-23T08:33:18.173Z,77.60
2019-03-23T08:34:16.499Z,79.00
2019-03-23T08:35:16.458Z,80.40
2019-03-23T08:36:16.379Z,83.20
2019-03-23T08:37:16.381Z,80.60
2019-03-23T08:38:16.262Z,81.60
2019-03-23T08:39:16.256Z,84.10
2019-03-23T08:40:16.255Z,81.80
2019-03-23T08:41:16.139Z,81.80
2019-03-23T08:42:16.144Z,82.60
2019-03-23T08:43:16.014Z,79.10
2019-03-23T08:44:16.017Z,79.50
2019-03-23T08:45:16.021Z,80.50
2019-03-23T08:46:15.896Z,84.30
2019-03-23T08:47:15.896Z,81.30
2019-03-23T08:48:15.856Z,80.80
2019-03-23T08:49:15.774Z,78.40
2019-03-23T08:50:15.777Z,87.30
2019-03-23T08:51:15.658Z,84.90
2019-03-23T08:52:15.652Z,83.30
2019-03-23T08:53:15.656Z,84.20
2019-03-23T08:54:15.531Z,82.70
2019-03-23T08:55:15.533Z,87.70
2019-03-23T08:56:15.417Z,84.10
2019-03-23T08:57:15.415Z,84.00
2019-03-23T08:58:15.415Z,84.90
2019-03-23T08:59:15.294Z,87.00
2019-03-23T09:00:15.292Z,84.80
2019-03-23T09:01:15.296Z,85.20
2019-03-23T09:02:15.175Z,85.30
2019-03-23T09:03:15.174Z,85.10
2019-03-23T09:04:15.052Z,85.60
2019-03-23T09:05:15.050Z,88.60
2019-03-23T09:06:15.053Z,85.10
2019-03-23T09:07:14.932Z,86.20
2019-03-23T09:08:14.930Z,85.70
2019-03-23T09:09:14.812Z,87.30
2019-03-23T09:10:14.810Z,87.90
2019-03-23T09:11:20.416Z,86.30
2019-03-23T09:12:14.692Z,83.90
2019-03-23T09:13:14.689Z,86.50
2019-03-23T09:14:14.689Z,84.00
2019-03-23T09:15:14.574Z,82.20
2019-03-23T09:16:14.569Z,84.80
2019-03-23T09:17:14.451Z,84.80
2019-03-23T09:18:14.447Z,85.90
2019-03-23T09:19:14.486Z,83.80
2019-03-23T09:20:14.326Z,81.90
2019-03-23T09:21:14.327Z,83.30
2019-03-23T09:22:14.330Z,84.30
2019-03-23T09:23:14.207Z,83.90
2019-03-23T09:24:14.211Z,83.30
2019-03-23T09:25:14.087Z,81.90
2019-03-23T09:26:14.087Z,85.60
2019-03-23T09:27:14.087Z,87.50
2019-03-23T09:28:13.970Z,81.90
2019-03-23T09:29:13.966Z,81.30
2019-03-23T09:30:13.844Z,82.90
2019-03-23T09:31:13.845Z,84.70
2019-03-23T09:32:13.847Z,83.70
2019-03-23T09:33:13.738Z,85.80
2019-03-23T09:34:13.732Z,82.20
2019-03-23T09:35:13.726Z,78.90
2019-03-23T09:36:13.615Z,82.50
2019-03-23T09:37:13.603Z,84.20
2019-03-23T09:38:13.483Z,79.40
2019-03-23T09:39:13.485Z,80.70
2019-03-23T09:40:13.487Z,78.80
2019-03-23T09:41:13.362Z,79.40
2019-03-23T09:42:13.370Z,83.30
2019-03-23T09:43:13.366Z,74.70
2019-03-23T09:44:13.247Z,75.60
2019-03-23T09:45:14.335Z,75.50
2019-03-23T09:46:13.121Z,79.10
2019-03-23T09:47:13.123Z,78.00
2019-03-23T09:48:13.123Z,72.10
2019-03-23T09:49:13.014Z,75.10
2019-03-23T09:50:13.000Z,73.00
2019-03-23T09:51:12.994Z,71.00
2019-03-23T09:52:12.879Z,75.00
2019-03-23T09:53:12.880Z,75.30
2019-03-23T09:54:12.758Z,78.40
2019-03-23T09:55:12.761Z,78.60
2019-03-23T09:56:12.766Z,75.00
2019-03-23T09:57:12.637Z,75.60
2019-03-23T09:58:12.641Z,73.30
2019-03-23T09:59:12.600Z,74.70
2019-03-23T10:00:12.521Z,76.20
2019-03-23T10:01:12.517Z,73.00
2019-03-23T10:02:12.399Z,75.20
2019-03-23T10:03:12.403Z,73.30
2019-03-23T10:04:12.399Z,69.50
2019-03-23T10:05:12.282Z,70.50
2019-03-23T10:06:12.280Z,67.50
2019-03-23T10:07:12.161Z,69.30
2019-03-23T10:08:12.170Z,68.80
2019-03-23T10:09:12.162Z,68.60
2019-03-23T10:10:21.301Z,69.00
2019-03-23T10:11:12.034Z,70.20
2019-03-23T10:12:12.035Z,70.20
2019-03-23T10:13:11.916Z,71.30
2019-03-23T10:14:11.914Z,65.20
2019-03-23T10:15:11.798Z,69.10
2019-03-23T10:16:11.800Z,69.10
2019-03-23T10:17:11.793Z,67.20
2019-03-23T10:18:11.673Z,69.80
2019-03-23T10:19:11.677Z,70.00
2019-03-23T10:20:11.676Z,67.30
2019-03-23T10:21:11.552Z,70.60
2019-03-23T10:22:11.558Z,69.60
2019-03-23T10:23:11.436Z,69.60
2019-03-23T10:24:11.456Z,66.00
2019-03-23T10:25:11.431Z,65.90
2019-03-23T10:26:11.313Z,66.30
2019-03-23T10:27:11.316Z,64.00
2019-03-23T10:28:11.315Z,67.40
2019-03-23T10:29:11.190Z,65.60
2019-03-23T10:30:11.193Z,65.20
2019-03-23T10:31:11.074Z,62.00
2019-03-23T10:32:11.073Z,63.60
2019-03-23T10:33:11.073Z,60.90
2019-03-23T10:34:10.953Z,63.20
2019-03-23T10:35:10.951Z,61.70
2019-03-23T10:36:12.253Z,59.90
2019-03-23T10:37:10.834Z,59.30
2019-03-23T10:38:10.838Z,60.80
2019-03-23T10:39:10.715Z,60.00
2019-03-23T10:40:10.717Z,57.90
2019-03-23T10:41:10.708Z,61.70
2019-03-23T10:42:10.587Z,59.30
2019-03-23T10:43:10.610Z,59.40
2019-03-23T10:44:10.591Z,58.60
2019-03-23T10:45:10.470Z,58.70
2019-03-23T10:46:10.469Z,62.40
2019-03-23T10:47:10.348Z,61.40
2019-03-23T10:48:12.170Z,58.20
2019-03-23T10:49:10.348Z,61.60
2019-03-23T10:50:10.228Z,58.20
2019-03-23T10:51:10.232Z,59.90
2019-03-23T10:52:10.235Z,61.10
2019-03-23T10:53:10.107Z,62.00
2019-03-23T10:54:10.108Z,60.20
2019-03-23T10:55:10.068Z,59.50
2019-03-23T10:56:09.987Z,56.70
2019-03-23T10:57:09.990Z,58.80
2019-03-23T10:58:09.868Z,62.40
2019-03-23T10:59:09.871Z,60.50
2019-03-23T11:00:09.864Z,59.60
2019-03-23T11:01:09.745Z,57.50
2019-03-23T11:02:09.751Z,56.00
2019-03-23T11:03:09.743Z,57.20
2019-03-23T11:04:09.626Z,61.10
2019-03-23T11:05:09.631Z,57.80
2019-03-23T11:06:09.502Z,58.10
2019-03-23T11:07:09.503Z,52.50
2019-03-23T11:08:09.505Z,51.00
2019-03-23T11:09:09.385Z,46.90
2019-03-23T11:10:09.384Z,48.60
2019-03-23T11:11:09.383Z,47.80
2019-03-23T11:12:09.264Z,49.80
2019-03-23T11:13:09.260Z,51.80
2019-03-23T11:14:09.265Z,49.10
2019-03-23T11:15:09.142Z,49.10
2019-03-23T11:16:09.142Z,48.30
2019-03-23T11:17:09.027Z,50.00
2019-03-23T11:18:09.022Z,50.10
2019-03-23T11:19:13.335Z,48.00
2019-03-23T11:20:08.899Z,48.50
2019-03-23T11:21:08.902Z,48.10
2019-03-23T11:22:08.903Z,48.40
2019-03-23T11:23:08.779Z,47.20
2019-03-23T11:24:08.785Z,50.20
2019-03-23T11:25:08.781Z,51.70
2019-03-23T11:26:08.659Z,49.50
2019-03-23T11:27:08.662Z,48.60
2019-03-23T11:28:08.538Z,48.60
2019-03-23T11:29:08.633Z,47.40
2019-03-23T11:30:08.538Z,49.80
2019-03-23T11:31:08.419Z,49.30
2019-03-23T11:32:08.419Z,49.50
2019-03-23T11:33:08.421Z,43.30
2019-03-23T11:34:17.515Z,45.40
2019-03-23T11:35:08.352Z,43.90
2019-03-23T11:36:08.298Z,42.80
2019-03-23T11:37:08.283Z,46.20
2019-03-23T11:38:08.175Z,46.70
2019-03-23T11:39:08.137Z,47.10
2019-03-23T11:40:08.055Z,44.10
2019-03-23T11:41:08.056Z,45.60
2019-03-23T11:42:07.934Z,46.50
2019-03-23T11:43:07.935Z,48.80
2019-03-23T11:44:07.936Z,49.20
2019-03-23T11:45:07.816Z,49.80
2019-03-23T11:46:07.817Z,48.40
2019-03-23T11:47:07.813Z,49.90
2019-03-23T11:48:07.694Z,48.80
2019-03-23T11:49:07.692Z,48.60
2019-03-23T11:50:07.698Z,46.90
2019-03-23T11:51:07.582Z,43.80
2019-03-23T11:52:07.572Z,46.90
2019-03-23T11:53:07.454Z,46.40
2019-03-23T11:54:07.451Z,43.80
2019-03-23T11:55:07.461Z,47.40
2019-03-23T11:56:07.333Z,46.10
2019-03-23T11:57:07.333Z,48.00
2019-03-23T11:58:07.331Z,47.30
2019-03-23T11:59:07.212Z,47.00
2019-03-23T12:00:07.216Z,46.50
2019-03-23T12:01:07.212Z,47.40
2019-03-23T12:02:07.095Z,50.10
2019-03-23T12:03:07.090Z,51.60
2019-03-23T12:04:07.054Z,50.00
2019-03-23T12:05:06.969Z,47.40
2019-03-23T12:06:06.970Z,47.40
2019-03-23T12:07:06.851Z,48.50
2019-03-23T12:08:06.850Z,51.50
2019-03-23T12:09:06.847Z,48.70
2019-03-23T12:10:06.727Z,47.90
2019-03-23T12:11:06.733Z,48.90
2019-03-23T12:12:06.728Z,48.50
2019-03-23T12:13:06.611Z,49.10
2019-03-23T12:14:06.610Z,48.40
2019-03-23T12:15:06.611Z,51.00
2019-03-23T12:16:06.493Z,48.00
2019-03-23T12:17:06.487Z,53.00
2019-03-23T12:18:06.375Z,50.90
2019-03-23T12:19:06.815Z,49.00
2019-03-23T12:20:06.373Z,48.80
2019-03-23T12:21:06.249Z,51.80
2019-03-23T12:22:06.247Z,51.10
2019-03-23T12:23:06.249Z,50.10
2019-03-23T12:24:06.126Z,51.20
2019-03-23T12:25:06.125Z,48.70
2019-03-23T12:26:06.128Z,51.50
2019-03-23T12:27:06.009Z,49.60
2019-03-23T12:28:06.012Z,50.30
2019-03-23T12:29:05.889Z,48.30
2019-03-23T12:30:07.538Z,48.00
2019-03-23T12:31:05.889Z,46.80
2019-03-23T12:32:05.775Z,50.80
2019-03-23T12:33:05.770Z,49.00
2019-03-23T12:34:05.767Z,51.50
2019-03-23T12:35:05.648Z,46.40
2019-03-23T12:36:05.643Z,46.50
2019-03-23T12:37:05.641Z,45.40
2019-03-23T12:38:05.524Z,47.50
2019-03-23T12:39:05.523Z,50.60
2019-03-23T12:40:05.403Z,48.30
2019-03-23T12:41:14.148Z,46.70
2019-03-23T12:42:05.399Z,48.00
2019-03-23T12:43:05.285Z,49.90
2019-03-23T12:44:05.286Z,47.50
2019-03-23T12:45:05.280Z,50.20
2019-03-23T12:46:05.162Z,48.80